Terminal Aerodrome Forecast
Issued by NWS Mt. Holly, NJ

Home | Current Version | Previous Version | Text Only | Print | Product List | Glossary On
Versions: 1 2 3 4 5 6 7 8 9 10 11 12 13 14 15 16 17
000
FTUS41 KPHI 301401 AAA
TAFILG
TAF AMD
KILG 301401Z 3014/3112 19010KT P6SM SCT018 BKN045
      TEMPO 3014/3016 BKN018 BKN045
     FM301600 20010KT P6SM SCT045
     FM301900 23010KT P6SM BKN045
      TEMPO 3019/3023 2SM TSRA BR BKN025CB
     FM310400 28005KT P6SM OVC250
     FM310900 31008KT P6SM SKC=

USA.gov is the U.S. government's official web portal to all federal, state and local government web resources and services.